sensor_id;sensor_type;location;lat;lon;timestamp;pressure;altitude;pressure_sealevel;temperature;humidity
82474;BME280;72350;53.232;6.556;2024-02-15T00:02:11;101336.81;;;10.96;100.00
82474;BME280;72350;53.232;6.556;2024-02-15T00:04:40;101340.59;;;10.94;100.00
82474;BME280;72350;53.232;6.556;2024-02-15T00:07:09;101338.88;;;11.02;100.00
82474;BME280;72350;53.232;6.556;2024-02-15T00:09:37;101339.94;;;11.01;100.00
82474;BME280;72350;53.232;6.556;2024-02-15T00:12:05;101357.47;;;11.00;100.00
82474;BME280;72350;53.232;6.556;2024-02-15T00:14:34;101353.72;;;11.01;100.00
82474;BME280;72350;53.232;6.556;2024-02-15T00:17:05;101348.91;;;11.03;100.00
82474;BME280;72350;53.232;6.556;2024-02-15T00:19:32;101345.59;;;10.99;100.00
82474;BME280;72350;53.232;6.556;2024-02-15T00:22:02;101343.53;;;10.93;100.00
82474;BME280;72350;53.232;6.556;2024-02-15T00:24:31;101347.84;;;11.04;100.00
82474;BME280;72350;53.232;6.556;2024-02-15T00:26:58;101336.47;;;11.07;100.00
82474;BME280;72350;53.232;6.556;2024-02-15T00:29:26;101340.44;;;11.04;100.00
82474;BME280;72350;53.232;6.556;2024-02-15T00:31:55;101338.03;;;11.09;100.00
82474;BME280;72350;53.232;6.556;2024-02-15T00:34:23;101341.47;;;11.03;100.00
82474;BME280;72350;53.232;6.556;2024-02-15T00:36:53;101335.78;;;11.05;100.00
82474;BME280;72350;53.232;6.556;2024-02-15T00:39:22;101335.63;;;11.06;100.00
82474;BME280;72350;53.232;6.556;2024-02-15T00:41:50;101340.78;;;11.09;100.00
82474;BME280;72350;53.232;6.556;2024-02-15T00:44:18;101335.97;;;11.11;100.00
82474;BME280;72350;53.232;6.556;2024-02-15T00:46:46;101341.47;;;11.11;100.00
82474;BME280;72350;53.232;6.556;2024-02-15T00:49:15;101344.75;;;11.15;100.00
82474;BME280;72350;53.232;6.556;2024-02-15T00:51:43;101338.38;;;11.14;100.00
82474;BME280;72350;53.232;6.556;2024-02-15T00:54:11;101341.66;;;11.18;100.00
82474;BME280;72350;53.232;6.556;2024-02-15T00:56:40;101343.53;;;11.26;100.00
82474;BME280;72350;53.232;6.556;2024-02-15T00:59:08;101344.91;;;11.22;100.00
82474;BME280;72350;53.232;6.556;2024-02-15T01:01:36;101348.38;;;11.15;100.00
82474;BME280;72350;53.232;6.556;2024-02-15T01:04:04;101344.06;;;11.13;100.00
82474;BME280;72350;53.232;6.556;2024-02-15T01:06:32;101346.47;;;11.24;100.00
82474;BME280;72350;53.232;6.556;2024-02-15T01:09:00;101343.53;;;11.18;100.00
82474;BME280;72350;53.232;6.556;2024-02-15T01:11:30;101344.75;;;11.15;100.00
82474;BME280;72350;53.232;6.556;2024-02-15T01:14:00;101343.22;;;11.21;100.00
82474;BME280;72350;53.232;6.556;2024-02-15T01:16:27;101338.00;;;11.18;100.00
82474;BME280;72350;53.232;6.556;2024-02-15T01:18:55;101343.88;;;11.14;100.00
82474;BME280;72350;53.232;6.556;2024-02-15T01:21:23;101336.47;;;11.15;100.00
82474;BME280;72350;53.232;6.556;2024-02-15T01:23:51;101346.28;;;11.09;100.00
82474;BME280;72350;53.232;6.556;2024-02-15T01:26:20;101349.56;;;11.05;100.00
82474;BME280;72350;53.232;6.556;2024-02-15T01:28:50;101344.22;;;11.11;100.00
82474;BME280;72350;53.232;6.556;2024-02-15T01:31:19;101338.72;;;11.20;100.00
82474;BME280;72350;53.232;6.556;2024-02-15T01:33:48;101340.28;;;11.06;100.00
82474;BME280;72350;53.232;6.556;2024-02-15T01:36:17;101347.16;;;11.10;100.00
82474;BME280;72350;53.232;6.556;2024-02-15T01:38:45;101352.66;;;11.02;100.00
82474;BME280;72350;53.232;6.556;2024-02-15T01:41:12;101359.72;;;11.04;100.00
82474;BME280;72350;53.232;6.556;2024-02-15T01:43:43;101353.22;;;11.05;100.00
82474;BME280;72350;53.232;6.556;2024-02-15T01:46:11;101340.97;;;11.08;100.00
82474;BME280;72350;53.232;6.556;2024-02-15T01:48:41;101342.34;;;11.04;100.00
82474;BME280;72350;53.232;6.556;2024-02-15T01:51:11;101353.22;;;11.05;100.00
82474;BME280;72350;53.232;6.556;2024-02-15T01:53:42;101343.19;;;11.04;100.00
82474;BME280;72350;53.232;6.556;2024-02-15T01:56:12;101358.19;;;11.10;100.00
82474;BME280;72350;53.232;6.556;2024-02-15T01:58:41;101349.03;;;11.18;100.00
82474;BME280;72350;53.232;6.556;2024-02-15T02:01:11;101343.72;;;11.16;100.00
82474;BME280;72350;53.232;6.556;2024-02-15T02:03:39;101343.38;;;11.11;100.00
82474;BME280;72350;53.232;6.556;2024-02-15T02:06:09;101346.63;;;11.14;100.00
82474;BME280;72350;53.232;6.556;2024-02-15T02:08:37;101352.66;;;11.10;100.00
82474;BME280;72350;53.232;6.556;2024-02-15T02:11:05;101359.91;;;11.11;100.00
82474;BME280;72350;53.232;6.556;2024-02-15T02:13:33;101366.09;;;11.05;100.00
82474;BME280;72350;53.232;6.556;2024-02-15T02:16:01;101356.63;;;11.07;100.00
82474;BME280;72350;53.232;6.556;2024-02-15T02:18:29;101357.84;;;11.05;100.00
82474;BME280;72350;53.232;6.556;2024-02-15T02:20:57;101340.28;;;11.06;100.00
82474;BME280;72350;53.232;6.556;2024-02-15T02:23:29;101349.06;;;11.09;100.00
82474;BME280;72350;53.232;6.556;2024-02-15T02:25:59;101348.91;;;11.11;100.00
82474;BME280;72350;53.232;6.556;2024-02-15T02:28:28;101350.25;;;11.15;100.00
82474;BME280;72350;53.232;6.556;2024-02-15T02:30:55;101351.13;;;11.07;100.00
82474;BME280;72350;53.232;6.556;2024-02-15T02:33:24;101342.00;;;11.07;100.00
82474;BME280;72350;53.232;6.556;2024-02-15T02:35:56;101341.63;;;11.10;100.00
82474;BME280;72350;53.232;6.556;2024-02-15T02:38:24;101335.09;;;11.11;100.00
82474;BME280;72350;53.232;6.556;2024-02-15T02:40:52;101339.06;;;11.08;100.00
82474;BME280;72350;53.232;6.556;2024-02-15T02:43:22;101343.03;;;11.14;100.00
82474;BME280;72350;53.232;6.556;2024-02-15T02:45:49;101349.59;;;11.13;100.00
82474;BME280;72350;53.232;6.556;2024-02-15T02:48:17;101351.13;;;11.15;100.00
82474;BME280;72350;53.232;6.556;2024-02-15T02:50:45;101351.81;;;11.09;100.00
82474;BME280;72350;53.232;6.556;2024-02-15T02:53:13;101349.06;;;11.09;100.00
82474;BME280;72350;53.232;6.556;2024-02-15T02:55:41;101347.50;;;11.15;100.00
82474;BME280;72350;53.232;6.556;2024-02-15T02:58:10;101344.56;;;11.17;100.00
82474;BME280;72350;53.232;6.556;2024-02-15T03:00:39;101342.53;;;11.10;100.00
82474;BME280;72350;53.232;6.556;2024-02-15T03:03:07;101345.09;;;11.12;100.00
82474;BME280;72350;53.232;6.556;2024-02-15T03:05:36;101342.88;;;11.15;100.00
82474;BME280;72350;53.232;6.556;2024-02-15T03:08:08;101333.06;;;11.13;100.00
82474;BME280;72350;53.232;6.556;2024-02-15T03:10:36;101340.63;;;11.11;100.00
82474;BME280;72350;53.232;6.556;2024-02-15T03:13:05;101339.41;;;11.05;100.00
82474;BME280;72350;53.232;6.556;2024-02-15T03:15:35;101332.88;;;11.06;100.00
82474;BME280;72350;53.232;6.556;2024-02-15T03:18:05;101334.94;;;11.04;100.00
82474;BME280;72350;53.232;6.556;2024-02-15T03:20:37;101332.16;;;11.04;100.00
82474;BME280;72350;53.232;6.556;2024-02-15T03:23:05;101338.03;;;11.09;100.00
82474;BME280;72350;53.232;6.556;2024-02-15T03:25:32;101324.78;;;11.13;100.00
82474;BME280;72350;53.232;6.556;2024-02-15T03:28:01;101324.44;;;11.16;100.00
82474;BME280;72350;53.232;6.556;2024-02-15T03:30:31;101322.34;;;11.10;100.00
82474;BME280;72350;53.232;6.556;2024-02-15T03:33:00;101321.50;;;11.09;100.00
82474;BME280;72350;53.232;6.556;2024-02-15T03:35:31;101321.81;;;11.14;100.00
82474;BME280;72350;53.232;6.556;2024-02-15T03:37:58;101327.84;;;11.10;100.00
82474;BME280;72350;53.232;6.556;2024-02-15T03:40:27;101314.06;;;11.10;100.00
82474;BME280;72350;53.232;6.556;2024-02-15T03:42:57;101320.13;;;11.05;100.00
82474;BME280;72350;53.232;6.556;2024-02-15T03:45:26;101328.03;;;11.08;100.00
82474;BME280;72350;53.232;6.556;2024-02-15T03:47:54;101324.59;;;11.06;100.00
82474;BME280;72350;53.232;6.556;2024-02-15T03:50:23;101327.69;;;11.03;100.00
82474;BME280;72350;53.232;6.556;2024-02-15T03:52:53;101329.59;;;11.03;100.00
82474;BME280;72350;53.232;6.556;2024-02-15T03:55:19;101333.56;;;11.08;100.00
82474;BME280;72350;53.232;6.556;2024-02-15T03:57:49;101330.09;;;11.06;100.00
82474;BME280;72350;53.232;6.556;2024-02-15T04:00:17;101327.69;;;11.11;100.00
82474;BME280;72350;53.232;6.556;2024-02-15T04:02:49;101315.47;;;11.14;100.00
82474;BME280;72350;53.232;6.556;2024-02-15T04:05:17;101321.13;;;11.12;100.00
82474;BME280;72350;53.232;6.556;2024-02-15T04:07:46;101323.91;;;11.04;100.00
82474;BME280;72350;53.232;6.556;2024-02-15T04:10:16;101322.00;;;11.05;100.00
82474;BME280;72350;53.232;6.556;2024-02-15T04:12:44;101320.47;;;11.10;100.00
82474;BME280;72350;53.232;6.556;2024-02-15T04:15:13;101312.88;;;11.12;100.00
82474;BME280;72350;53.232;6.556;2024-02-15T04:17:44;101320.13;;;11.13;100.00
82474;BME280;72350;53.232;6.556;2024-02-15T04:20:13;101313.56;;;11.14;100.00
82474;BME280;72350;53.232;6.556;2024-02-15T04:22:43;101313.06;;;11.11;100.00
82474;BME280;72350;53.232;6.556;2024-02-15T04:25:11;101319.41;;;11.20;100.00
82474;BME280;72350;53.232;6.556;2024-02-15T04:27:46;101317.50;;;11.20;100.00
82474;BME280;72350;53.232;6.556;2024-02-15T04:30:14;101314.94;;;11.19;100.00
82474;BME280;72350;53.232;6.556;2024-02-15T04:32:44;101316.13;;;11.24;100.00
82474;BME280;72350;53.232;6.556;2024-02-15T04:35:13;101319.06;;;11.23;100.00
82474;BME280;72350;53.232;6.556;2024-02-15T04:37:41;101317.34;;;11.22;100.00
82474;BME280;72350;53.232;6.556;2024-02-15T04:40:10;101309.94;;;11.22;100.00
82474;BME280;72350;53.232;6.556;2024-02-15T04:42:41;101318.91;;;11.24;100.00
82474;BME280;72350;53.232;6.556;2024-02-15T04:45:12;101315.28;;;11.24;100.00
82474;BME280;72350;53.232;6.556;2024-02-15T04:47:42;101315.63;;;11.21;100.00
82474;BME280;72350;53.232;6.556;2024-02-15T04:50:12;101321.31;;;11.27;100.00
82474;BME280;72350;53.232;6.556;2024-02-15T04:52:42;101317.34;;;11.22;100.00
82474;BME280;72350;53.232;6.556;2024-02-15T04:55:12;101309.25;;;11.20;100.00
82474;BME280;72350;53.232;6.556;2024-02-15T04:57:42;101311.63;;;11.23;100.00
82474;BME280;72350;53.232;6.556;2024-02-15T05:00:12;101302.84;;;11.28;100.00
82474;BME280;72350;53.232;6.556;2024-02-15T05:02:41;101308.91;;;11.31;100.00
82474;BME280;72350;53.232;6.556;2024-02-15T05:05:10;101292.03;;;11.26;100.00
82474;BME280;72350;53.232;6.556;2024-02-15T05:07:40;101292.34;;;11.31;100.00
82474;BME280;72350;53.232;6.556;2024-02-15T05:10:10;101279.44;;;11.24;100.00
82474;BME280;72350;53.232;6.556;2024-02-15T05:12:39;101268.75;;;11.29;100.00
82474;BME280;72350;53.232;6.556;2024-02-15T05:15:08;101257.38;;;11.32;100.00
82474;BME280;72350;53.232;6.556;2024-02-15T05:17:40;101267.38;;;11.25;100.00
82474;BME280;72350;53.232;6.556;2024-02-15T05:20:09;101269.63;;;11.21;100.00
82474;BME280;72350;53.232;6.556;2024-02-15T05:22:40;101263.75;;;11.24;100.00
82474;BME280;72350;53.232;6.556;2024-02-15T05:25:16;101240.50;;;11.19;100.00
82474;BME280;72350;53.232;6.556;2024-02-15T05:27:50;101232.94;;;11.21;100.00
82474;BME280;72350;53.232;6.556;2024-02-15T05:30:20;101241.50;;;11.26;100.00
82474;BME280;72350;53.232;6.556;2024-02-15T05:32:50;101238.41;;;11.29;100.00
82474;BME280;72350;53.232;6.556;2024-02-15T05:35:20;101249.09;;;11.32;100.00
82474;BME280;72350;53.232;6.556;2024-02-15T05:37:48;101252.00;;;11.30;100.00
82474;BME280;72350;53.232;6.556;2024-02-15T05:40:19;101254.97;;;11.29;100.00
82474;BME280;72350;53.232;6.556;2024-02-15T05:42:47;101253.06;;;11.29;100.00
82474;BME280;72350;53.232;6.556;2024-02-15T05:45:29;101244.94;;;11.28;100.00
82474;BME280;72350;53.232;6.556;2024-02-15T05:48:04;101242.19;;;11.28;100.00
82474;BME280;72350;53.232;6.556;2024-02-15T05:50:34;101253.75;;;11.31;100.00
82474;BME280;72350;53.232;6.556;2024-02-15T05:53:03;101250.09;;;11.31;100.00
82474;BME280;72350;53.232;6.556;2024-02-15T05:55:31;101251.00;;;11.31;100.00
82474;BME280;72350;53.232;6.556;2024-02-15T05:58:02;101253.38;;;11.34;100.00
82474;BME280;72350;53.232;6.556;2024-02-15T06:00:31;101246.81;;;11.44;100.00
82474;BME280;72350;53.232;6.556;2024-02-15T06:03:03;101247.31;;;11.47;100.00
82474;BME280;72350;53.232;6.556;2024-02-15T06:05:32;101243.19;;;11.43;100.00
82474;BME280;72350;53.232;6.556;2024-02-15T06:08:00;101245.59;;;11.46;100.00
82474;BME280;72350;53.232;6.556;2024-02-15T06:10:28;101250.44;;;11.44;100.00
82474;BME280;72350;53.232;6.556;2024-02-15T06:12:57;101251.47;;;11.43;100.00
82474;BME280;72350;53.232;6.556;2024-02-15T06:15:26;101253.84;;;11.46;100.00
82474;BME280;72350;53.232;6.556;2024-02-15T06:17:54;101250.44;;;11.44;100.00
82474;BME280;72350;53.232;6.556;2024-02-15T06:20:23;101255.25;;;11.50;100.00
82474;BME280;72350;53.232;6.556;2024-02-15T06:22:53;101258.84;;;11.51;100.00
82474;BME280;72350;53.232;6.556;2024-02-15T06:25:22;101253.16;;;11.52;100.00
82474;BME280;72350;53.232;6.556;2024-02-15T06:27:53;101245.38;;;11.56;100.00
82474;BME280;72350;53.232;6.556;2024-02-15T06:30:26;101253.16;;;11.52;100.00
82474;BME280;72350;53.232;6.556;2024-02-15T06:33:11;101251.25;;;11.53;100.00
82474;BME280;72350;53.232;6.556;2024-02-15T06:35:58;101251.75;;;11.56;100.00
82474;BME280;72350;53.232;6.556;2024-02-15T06:38:44;101254.88;;;11.53;100.00
82474;BME280;72350;53.232;6.556;2024-02-15T06:41:29;101253.66;;;11.56;100.00
82474;BME280;72350;53.232;6.556;2024-02-15T06:43:57;101248.66;;;11.59;100.00
82474;BME280;72350;53.232;6.556;2024-02-15T06:46:25;101253.81;;;11.63;100.00
82474;BME280;72350;53.232;6.556;2024-02-15T06:48:53;101247.28;;;11.55;100.00
82474;BME280;72350;53.232;6.556;2024-02-15T06:51:23;101252.28;;;11.60;100.00
82474;BME280;72350;53.232;6.556;2024-02-15T06:53:51;101258.13;;;11.65;100.00
82474;BME280;72350;53.232;6.556;2024-02-15T06:56:22;101252.94;;;11.62;100.00
82474;BME280;72350;53.232;6.556;2024-02-15T06:58:51;101253.31;;;11.59;100.00
82474;BME280;72350;53.232;6.556;2024-02-15T07:01:20;101253.13;;;11.61;100.00
82474;BME280;72350;53.232;6.556;2024-02-15T07:03:48;101251.72;;;11.65;100.00
82474;BME280;72350;53.232;6.556;2024-02-15T07:06:17;101258.63;;;11.69;100.00
82474;BME280;72350;53.232;6.556;2024-02-15T07:08:47;101256.22;;;11.66;100.00
82474;BME280;72350;53.232;6.556;2024-02-15T07:11:17;101250.19;;;11.70;100.00
82474;BME280;72350;53.232;6.556;2024-02-15T07:13:45;101260.00;;;11.73;100.00
82474;BME280;72350;53.232;6.556;2024-02-15T07:16:13;101256.56;;;11.71;100.00
82474;BME280;72350;53.232;6.556;2024-02-15T07:18:41;101252.94;;;11.70;100.00
82474;BME280;72350;53.232;6.556;2024-02-15T07:21:10;101248.44;;;11.69;100.00
82474;BME280;72350;53.232;6.556;2024-02-15T07:23:40;101247.38;;;11.78;100.00
82474;BME280;72350;53.232;6.556;2024-02-15T07:26:10;101255.78;;;11.85;100.00
82474;BME280;72350;53.232;6.556;2024-02-15T07:28:39;101264.06;;;11.85;100.00
82474;BME280;72350;53.232;6.556;2024-02-15T07:31:07;101263.41;;;11.83;100.00
82474;BME280;72350;53.232;6.556;2024-02-15T07:33:35;101255.47;;;11.80;100.00
82474;BME280;72350;53.232;6.556;2024-02-15T07:36:04;101261.66;;;11.82;100.00
82474;BME280;72350;53.232;6.556;2024-02-15T07:38:32;101257.19;;;11.81;100.00
82474;BME280;72350;53.232;6.556;2024-02-15T07:41:01;101257.69;;;11.85;100.00
82474;BME280;72350;53.232;6.556;2024-02-15T07:43:31;101250.47;;;11.84;100.00
82474;BME280;72350;53.232;6.556;2024-02-15T07:46:00;101241.97;;;11.85;100.00
82474;BME280;72350;53.232;6.556;2024-02-15T07:48:27;101229.25;;;11.84;100.00
82474;BME280;72350;53.232;6.556;2024-02-15T07:50:55;101234.41;;;11.87;100.00
82474;BME280;72350;53.232;6.556;2024-02-15T07:53:25;101229.97;;;11.86;100.00
82474;BME280;72350;53.232;6.556;2024-02-15T07:55:53;101242.34;;;11.82;100.00
82474;BME280;72350;53.232;6.556;2024-02-15T07:58:21;101232.72;;;11.78;100.00
82474;BME280;72350;53.232;6.556;2024-02-15T08:00:50;101246.69;;;11.76;100.00
82474;BME280;72350;53.232;6.556;2024-02-15T08:03:18;101251.53;;;11.74;100.00
82474;BME280;72350;53.232;6.556;2024-02-15T08:05:47;101249.97;;;11.72;100.00
82474;BME280;72350;53.232;6.556;2024-02-15T08:08:15;101248.28;;;11.71;100.00
82474;BME280;72350;53.232;6.556;2024-02-15T08:10:43;101262.94;;;11.71;100.00
82474;BME280;72350;53.232;6.556;2024-02-15T08:13:12;101254.31;;;11.66;100.00
82474;BME280;72350;53.232;6.556;2024-02-15T08:15:42;101252.28;;;11.60;100.00
82474;BME280;72350;53.232;6.556;2024-02-15T08:18:12;101255.91;;;11.61;100.00
82474;BME280;72350;53.232;6.556;2024-02-15T08:20:40;101262.75;;;11.65;100.00
82474;BME280;72350;53.232;6.556;2024-02-15T08:23:11;101263.81;;;11.64;100.00
82474;BME280;72350;53.232;6.556;2024-02-15T08:25:39;101258.28;;;11.64;100.00
82474;BME280;72350;53.232;6.556;2024-02-15T08:28:07;101258.63;;;11.69;100.00
82474;BME280;72350;53.232;6.556;2024-02-15T08:30:36;101256.59;;;11.63;100.00
82474;BME280;72350;53.232;6.556;2024-02-15T08:33:04;101253.50;;;11.57;100.00
82474;BME280;72350;53.232;6.556;2024-02-15T08:35:34;101262.63;;;11.58;100.00
82474;BME280;72350;53.232;6.556;2024-02-15T08:38:02;101268.81;;;11.68;100.00
82474;BME280;72350;53.232;6.556;2024-02-15T08:40:32;101255.16;;;11.67;100.00
82474;BME280;72350;53.232;6.556;2024-02-15T08:43:00;101253.09;;;11.69;100.00
82474;BME280;72350;53.232;6.556;2024-02-15T08:45:29;101255.34;;;11.73;100.00
82474;BME280;72350;53.232;6.556;2024-02-15T08:47:57;101244.63;;;11.78;100.00
82474;BME280;72350;53.232;6.556;2024-02-15T08:50:25;101247.41;;;11.70;100.00
82474;BME280;72350;53.232;6.556;2024-02-15T08:52:56;101242.44;;;11.66;100.00
82474;BME280;72350;53.232;6.556;2024-02-15T08:55:24;101243.28;;;11.66;100.00
82474;BME280;72350;53.232;6.556;2024-02-15T08:57:53;101243.97;;;11.68;100.00
82474;BME280;72350;53.232;6.556;2024-02-15T09:00:21;101243.78;;;11.70;100.00
82474;BME280;72350;53.232;6.556;2024-02-15T09:02:50;101238.44;;;11.68;100.00
82474;BME280;72350;53.232;6.556;2024-02-15T09:05:20;101242.75;;;11.71;100.00
82474;BME280;72350;53.232;6.556;2024-02-15T09:07:49;101250.00;;;11.64;100.00
82474;BME280;72350;53.232;6.556;2024-02-15T09:10:19;101247.41;;;11.70;100.00
82474;BME280;72350;53.232;6.556;2024-02-15T09:12:49;101244.81;;;11.69;100.00
82474;BME280;72350;53.232;6.556;2024-02-15T09:15:17;101250.34;;;11.69;100.00
82474;BME280;72350;53.232;6.556;2024-02-15T09:17:45;101250.66;;;11.74;100.00
82474;BME280;72350;53.232;6.556;2024-02-15T09:20:15;101251.16;;;11.77;100.00
82474;BME280;72350;53.232;6.556;2024-02-15T09:22:48;101247.75;;;11.75;100.00
82474;BME280;72350;53.232;6.556;2024-02-15T09:25:16;101243.44;;;11.73;100.00
82474;BME280;72350;53.232;6.556;2024-02-15T09:27:46;101246.16;;;11.81;100.00
82474;BME280;72350;53.232;6.556;2024-02-15T09:30:15;101239.09;;;11.87;100.00
82474;BME280;72350;53.232;6.556;2024-02-15T09:32:44;101241.66;;;11.80;100.00
82474;BME280;72350;53.232;6.556;2024-02-15T09:35:13;101244.09;;;11.83;100.00
82474;BME280;72350;53.232;6.556;2024-02-15T09:37:44;101234.75;;;11.84;100.00
82474;BME280;72350;53.232;6.556;2024-02-15T09:40:13;101229.75;;;11.88;100.00
82474;BME280;72350;53.232;6.556;2024-02-15T09:42:42;101220.25;;;11.90;100.00
82474;BME280;72350;53.232;6.556;2024-02-15T09:45:13;101225.44;;;11.85;100.00
82474;BME280;72350;53.232;6.556;2024-02-15T09:47:44;101215.44;;;11.84;100.00
82474;BME280;72350;53.232;6.556;2024-02-15T09:50:13;101224.06;;;11.89;100.00
82474;BME280;72350;53.232;6.556;2024-02-15T09:52:44;101219.03;;;11.93;100.00
82474;BME280;72350;53.232;6.556;2024-02-15T09:55:14;101222.31;;;11.96;100.00
82474;BME280;72350;53.232;6.556;2024-02-15T09:57:43;101225.56;;;12.00;100.00
82474;BME280;72350;53.232;6.556;2024-02-15T10:00:15;101218.66;;;12.04;100.00
82474;BME280;72350;53.232;6.556;2024-02-15T10:02:46;101217.28;;;12.00;100.00
82474;BME280;72350;53.232;6.556;2024-02-15T10:05:16;101216.06;;;12.02;100.00
82474;BME280;72350;53.232;6.556;2024-02-15T10:07:45;101220.19;;;12.07;100.00
82474;BME280;72350;53.232;6.556;2024-02-15T10:10:18;101223.44;;;12.10;100.00
82474;BME280;72350;53.232;6.556;2024-02-15T10:12:47;101213.38;;;12.17;100.00
82474;BME280;72350;53.232;6.556;2024-02-15T10:15:30;101221.66;;;12.17;100.00
82474;BME280;72350;53.232;6.556;2024-02-15T10:18:01;101224.59;;;12.16;100.00
82474;BME280;72350;53.232;6.556;2024-02-15T10:20:30;101224.97;;;12.13;100.00
82474;BME280;72350;53.232;6.556;2024-02-15T10:23:11;101225.66;;;12.15;100.00
82474;BME280;72350;53.232;6.556;2024-02-15T10:25:40;101216.69;;;12.13;100.00
82474;BME280;72350;53.232;6.556;2024-02-15T10:28:10;101212.63;;;12.23;100.00
82474;BME280;72350;53.232;6.556;2024-02-15T10:30:41;101204.91;;;12.19;100.00
82474;BME280;72350;53.232;6.556;2024-02-15T10:33:18;101210.94;;;12.22;100.00
82474;BME280;72350;53.232;6.556;2024-02-15T10:35:46;101209.88;;;12.23;100.00
82474;BME280;72350;53.232;6.556;2024-02-15T10:38:14;101204.34;;;12.23;100.00
82474;BME280;72350;53.232;6.556;2024-02-15T10:40:46;101204.88;;;12.27;100.00
82474;BME280;72350;53.232;6.556;2024-02-15T10:43:15;101200.38;;;12.26;100.00
82474;BME280;72350;53.232;6.556;2024-02-15T10:45:46;101207.25;;;12.30;100.00
82474;BME280;72350;53.232;6.556;2024-02-15T10:48:16;101218.78;;;12.34;100.00
82474;BME280;72350;53.232;6.556;2024-02-15T10:50:45;101220.00;;;12.31;100.00
82474;BME280;72350;53.232;6.556;2024-02-15T10:53:21;101214.69;;;12.30;100.00
82474;BME280;72350;53.232;6.556;2024-02-15T10:55:57;101217.63;;;12.28;100.00
82474;BME280;72350;53.232;6.556;2024-02-15T10:58:32;101223.63;;;12.32;100.00
82474;BME280;72350;53.232;6.556;2024-02-15T11:01:06;101214.50;;;12.31;100.00
82474;BME280;72350;53.232;6.556;2024-02-15T11:03:36;101213.56;;;12.39;100.00
82474;BME280;72350;53.232;6.556;2024-02-15T11:06:09;101220.00;;;12.31;100.00
82474;BME280;72350;53.232;6.556;2024-02-15T11:08:38;101213.47;;;12.32;100.00
82474;BME280;72350;53.232;6.556;2024-02-15T11:11:07;101211.94;;;12.30;100.00
82474;BME280;72350;53.232;6.556;2024-02-15T11:13:39;101211.94;;;12.30;100.00
82474;BME280;72350;53.232;6.556;2024-02-15T11:16:08;101209.16;;;12.30;100.00
82474;BME280;72350;53.232;6.556;2024-02-15T11:18:43;101206.81;;;12.41;100.00
82474;BME280;72350;53.232;6.556;2024-02-15T11:24:31;101212.94;;;12.29;100.00
82474;BME280;72350;53.232;6.556;2024-02-15T11:27:02;101207.97;;;12.24;100.00
82474;BME280;72350;53.232;6.556;2024-02-15T11:29:49;101211.03;;;12.29;100.00
82474;BME280;72350;53.232;6.556;2024-02-15T11:32:40;101211.94;;;12.30;100.00
82474;BME280;72350;53.232;6.556;2024-02-15T11:35:12;101214.50;;;12.31;100.00
82474;BME280;72350;53.232;6.556;2024-02-15T11:37:58;101214.19;;;12.26;100.00
82474;BME280;72350;53.232;6.556;2024-02-15T11:41:00;101214.84;;;12.28;100.00
82474;BME280;72350;53.232;6.556;2024-02-15T11:43:49;101205.50;;;12.29;100.00
82474;BME280;72350;53.232;6.556;2024-02-15T11:46:24;101211.63;;;12.24;100.00
82474;BME280;72350;53.232;6.556;2024-02-15T11:48:57;101208.66;;;12.26;100.00
82474;BME280;72350;53.232;6.556;2024-02-15T11:51:29;101209.16;;;12.30;100.00
82474;BME280;72350;53.232;6.556;2024-02-15T11:54:01;101197.06;;;12.31;100.00
82474;BME280;72350;53.232;6.556;2024-02-15T11:56:48;101197.75;;;12.33;100.00
82474;BME280;72350;53.232;6.556;2024-02-15T11:59:18;101197.22;;;12.29;100.00
82474;BME280;72350;53.232;6.556;2024-02-15T12:01:56;101192.91;;;12.35;100.00
82474;BME280;72350;53.232;6.556;2024-02-15T12:04:43;101189.09;;;12.36;100.00
82474;BME280;72350;53.232;6.556;2024-02-15T12:07:30;101189.94;;;12.36;100.00
82474;BME280;72350;53.232;6.556;2024-02-15T12:10:16;101194.06;;;12.40;100.00
82474;BME280;72350;53.232;6.556;2024-02-15T12:13:03;101191.09;;;12.42;100.00
82474;BME280;72350;53.232;6.556;2024-02-15T12:15:57;101184.03;;;12.39;100.00
82474;BME280;72350;53.232;6.556;2024-02-15T12:18:43;101187.47;;;12.41;100.00
82474;BME280;72350;53.232;6.556;2024-02-15T12:21:16;101178.13;;;12.42;100.00
82474;BME280;72350;53.232;6.556;2024-02-15T12:23:45;101181.47;;;12.38;100.00
82474;BME280;72350;53.232;6.556;2024-02-15T12:26:14;101171.75;;;12.42;100.00
82474;BME280;72350;53.232;6.556;2024-02-15T12:28:44;101177.28;;;12.42;100.00
82474;BME280;72350;53.232;6.556;2024-02-15T12:31:17;101166.97;;;12.36;100.00
82474;BME280;72350;53.232;6.556;2024-02-15T12:33:45;101168.91;;;12.35;100.00
82474;BME280;72350;53.232;6.556;2024-02-15T12:36:19;101176.91;;;12.45;100.00
82474;BME280;72350;53.232;6.556;2024-02-15T12:38:58;101166.78;;;12.37;100.00
82474;BME280;72350;53.232;6.556;2024-02-15T12:41:26;101164.91;;;12.38;100.00
82474;BME280;72350;53.232;6.556;2024-02-15T12:43:54;101167.84;;;12.36;100.00
82474;BME280;72350;53.232;6.556;2024-02-15T12:46:23;101160.41;;;12.37;100.00
82474;BME280;72350;53.232;6.556;2024-02-15T12:49:06;101168.31;;;12.40;100.00
82474;BME280;72350;53.232;6.556;2024-02-15T12:51:36;101158.94;;;12.26;100.00
82474;BME280;72350;53.232;6.556;2024-02-15T12:54:08;101158.56;;;12.29;100.00
82474;BME280;72350;53.232;6.556;2024-02-15T12:56:36;101146.59;;;12.37;100.00
82474;BME280;72350;53.232;6.556;2024-02-15T12:59:06;101146.13;;;12.33;100.00
82474;BME280;72350;53.232;6.556;2024-02-15T13:01:34;101155.47;;;12.32;100.00